Isle Saint George, Ohio
Current Conditions -  °F | °C
As of 5:33 PM on Wednesday 22 Oct 2014 (Local Time) from KPCW Reporting Station
NA  
Wind Chill: 54°   Ceiling: NA
Heat Index: 54°   Visibility: NA
Dew Point: 43°   Wind: 5mph
Humidity: 67%   Direction: 20°NNE
Pressure: 30.26"   Gusts: NA
Location:  41.72°N, 82.82°W
Report Text: KPCW 222133Z AUTO 02004KT 12/06 A3026 RMK AO2 $
Loading
Personal Weather Stations






























Interactive Weather Map
Tropical Storm Tracking
New forecast layout! Learn more

10-Day Weather Forecast

Advertisements
Track Severe Weather on mobile